createdAt,value
2022-12-29T00:01:42.514Z,2.07
2022-12-29T00:04:15.239Z,2.43
2022-12-29T00:06:43.693Z,2.50
2022-12-29T00:09:13.417Z,1.97
2022-12-29T00:11:40.643Z,2.30
2022-12-29T00:14:27.320Z,2.33
2022-12-29T00:16:54.016Z,2.03
2022-12-29T00:19:39.623Z,2.27
2022-12-29T00:22:25.038Z,3.10
2022-12-29T00:25:10.055Z,1.97
2022-12-29T00:27:55.175Z,2.53
2022-12-29T00:30:42.316Z,2.30
2022-12-29T00:33:38.325Z,2.00
2022-12-29T00:36:25.029Z,2.30
2022-12-29T00:39:14.292Z,2.60
2022-12-29T00:41:59.796Z,2.50
2022-12-29T00:44:26.513Z,2.67
2022-12-29T00:46:53.161Z,2.70
2022-12-29T00:49:32.294Z,2.60
2022-12-29T00:52:03.397Z,1.97
2022-12-29T00:54:35.716Z,2.67
2022-12-29T00:57:03.426Z,2.60
2022-12-29T00:59:30.130Z,2.50
2022-12-29T01:01:57.446Z,2.53
2022-12-29T01:04:25.930Z,2.47
2022-12-29T01:06:53.052Z,2.77
2022-12-29T01:09:39.148Z,2.70
2022-12-29T01:12:07.513Z,2.60
2022-12-29T01:14:34.347Z,2.37
2022-12-29T01:17:01.058Z,2.10
2022-12-29T01:19:28.304Z,2.10
2022-12-29T01:21:55.012Z,2.80
2022-12-29T01:24:22.158Z,2.40
2022-12-29T01:26:49.789Z,2.33
2022-12-29T01:29:16.430Z,2.50
2022-12-29T01:31:44.081Z,2.27
2022-12-29T01:34:10.812Z,2.53
2022-12-29T01:36:37.588Z,1.80
2022-12-29T01:39:04.369Z,2.63
2022-12-29T01:41:31.174Z,2.57
2022-12-29T01:44:03.052Z,2.97
2022-12-29T01:46:37.953Z,2.60
2022-12-29T01:49:16.681Z,2.90
2022-12-29T01:52:06.965Z,2.60
2022-12-29T01:54:40.060Z,3.20
2022-12-29T01:57:10.708Z,3.37
2022-12-29T01:59:42.462Z,2.50
2022-12-29T02:02:09.234Z,2.70
2022-12-29T02:04:40.923Z,2.97
2022-12-29T02:07:14.565Z,3.30
2022-12-29T02:09:43.283Z,4.00
2022-12-29T02:12:11.043Z,3.73
2022-12-29T02:14:37.771Z,3.80
2022-12-29T02:17:23.052Z,3.00
2022-12-29T02:20:28.454Z,3.77
2022-12-29T02:23:19.219Z,3.77
2022-12-29T02:26:24.928Z,3.80
2022-12-29T02:29:18.699Z,3.90
2022-12-29T02:32:16.165Z,3.57
2022-12-29T02:35:10.449Z,3.33
2022-12-29T02:38:11.463Z,3.50
2022-12-29T02:41:03.949Z,2.80
2022-12-29T02:43:36.275Z,3.27
2022-12-29T02:46:28.925Z,3.93
2022-12-29T02:49:15.112Z,3.40
2022-12-29T02:51:52.933Z,3.20
2022-12-29T02:54:39.156Z,2.90
2022-12-29T02:57:28.561Z,2.90
2022-12-29T03:00:09.333Z,3.13
2022-12-29T03:03:02.160Z,3.63
2022-12-29T03:06:07.660Z,3.27
2022-12-29T03:08:50.654Z,3.40
2022-12-29T03:11:36.575Z,2.80
2022-12-29T03:14:42.303Z,2.53
2022-12-29T03:17:17.191Z,2.43
2022-12-29T03:19:50.271Z,2.83
2022-12-29T03:22:29.083Z,2.63
2022-12-29T03:25:04.285Z,2.90
2022-12-29T03:27:36.573Z,2.30
2022-12-29T03:30:05.976Z,2.77
2022-12-29T03:32:39.572Z,2.30
2022-12-29T03:35:08.725Z,2.80
2022-12-29T03:37:42.491Z,2.53
2022-12-29T03:40:09.828Z,2.37
2022-12-29T03:42:38.281Z,2.30
2022-12-29T03:45:07.312Z,2.37
2022-12-29T03:47:34.033Z,1.90
2022-12-29T03:50:00.674Z,2.53
2022-12-29T03:52:27.285Z,2.57
2022-12-29T03:54:53.900Z,3.10
2022-12-29T03:57:20.510Z,2.43
2022-12-29T03:59:47.194Z,2.70
2022-12-29T04:02:13.991Z,2.73
2022-12-29T04:04:41.301Z,2.20
2022-12-29T04:07:07.980Z,2.20
2022-12-29T04:09:34.755Z,2.40
2022-12-29T04:12:01.422Z,2.17
2022-12-29T04:14:28.048Z,2.13
2022-12-29T04:16:54.679Z,1.90
2022-12-29T04:19:21.291Z,2.20
2022-12-29T04:21:47.904Z,2.03
2022-12-29T04:24:14.556Z,2.17
2022-12-29T04:26:42.583Z,1.77
2022-12-29T04:29:09.213Z,1.90
2022-12-29T04:31:35.973Z,2.00
2022-12-29T04:34:03.021Z,1.60
2022-12-29T04:36:30.302Z,2.03
2022-12-29T04:38:57.096Z,1.50
2022-12-29T04:41:24.198Z,1.80
2022-12-29T04:43:50.894Z,1.70
2022-12-29T04:46:17.634Z,1.80
2022-12-29T04:48:45.236Z,1.43
2022-12-29T04:51:11.879Z,1.20
2022-12-29T04:53:38.459Z,1.57
2022-12-29T04:56:05.470Z,1.80
2022-12-29T04:58:32.087Z,1.70
2022-12-29T05:00:58.790Z,1.67
2022-12-29T05:03:25.483Z,1.33
2022-12-29T05:05:55.612Z,1.57
2022-12-29T05:08:27.803Z,1.20
2022-12-29T05:10:55.083Z,1.50
2022-12-29T05:13:21.849Z,1.53
2022-12-29T05:15:53.342Z,1.00
2022-12-29T05:18:20.336Z,1.33
2022-12-29T05:20:48.126Z,1.30
2022-12-29T05:23:15.593Z,1.10
2022-12-29T05:25:42.397Z,1.43
2022-12-29T05:28:09.150Z,1.40
2022-12-29T05:30:35.803Z,1.10
2022-12-29T05:33:02.457Z,1.17
2022-12-29T05:35:29.124Z,1.20
2022-12-29T05:37:55.740Z,1.20
2022-12-29T05:40:22.360Z,1.10
2022-12-29T05:42:48.981Z,1.10
2022-12-29T05:45:15.650Z,1.40
2022-12-29T05:47:42.326Z,1.70
2022-12-29T05:50:09.085Z,1.10
2022-12-29T05:52:35.740Z,1.40
2022-12-29T05:55:02.441Z,0.77
2022-12-29T05:57:29.035Z,1.13
2022-12-29T05:59:55.630Z,1.50
2022-12-29T06:02:22.459Z,0.87
2022-12-29T06:04:49.172Z,1.10
2022-12-29T06:07:15.818Z,0.80
2022-12-29T06:09:42.418Z,1.00
2022-12-29T06:12:09.090Z,1.00
2022-12-29T06:14:35.720Z,0.83
2022-12-29T06:17:02.312Z,0.80
2022-12-29T06:19:28.900Z,1.20
2022-12-29T06:21:55.964Z,0.83
2022-12-29T06:24:22.754Z,0.80
2022-12-29T06:26:49.397Z,0.90
2022-12-29T06:29:18.060Z,1.67
2022-12-29T06:31:48.128Z,0.90
2022-12-29T06:34:15.002Z,1.37
2022-12-29T06:36:41.642Z,1.10
2022-12-29T06:39:08.236Z,1.00
2022-12-29T06:41:34.869Z,1.13
2022-12-29T06:44:01.525Z,0.83
2022-12-29T06:46:28.264Z,1.03
2022-12-29T06:48:54.924Z,1.17
2022-12-29T06:51:21.532Z,1.00
2022-12-29T06:53:48.173Z,1.00
2022-12-29T06:56:15.021Z,1.50
2022-12-29T06:58:41.692Z,0.93
2022-12-29T07:01:08.440Z,1.00
2022-12-29T07:03:35.277Z,1.10
2022-12-29T07:06:01.951Z,1.10
2022-12-29T07:08:28.744Z,0.87
2022-12-29T07:10:55.359Z,0.67
2022-12-29T07:13:22.014Z,1.30
2022-12-29T07:15:48.645Z,0.97
2022-12-29T07:18:15.400Z,0.80
2022-12-29T07:20:42.165Z,0.93
2022-12-29T07:23:09.012Z,0.93
2022-12-29T07:25:36.891Z,0.90
2022-12-29T07:28:04.697Z,1.07
2022-12-29T07:30:31.365Z,1.00
2022-12-29T07:32:58.408Z,1.20
2022-12-29T07:35:25.076Z,1.20
2022-12-29T07:37:51.777Z,1.17
2022-12-29T07:40:18.415Z,1.40
2022-12-29T07:42:45.064Z,1.30
2022-12-29T07:45:11.952Z,1.27
2022-12-29T07:47:38.608Z,2.20
2022-12-29T07:50:06.117Z,1.40
2022-12-29T07:52:32.785Z,1.10
2022-12-29T07:54:59.843Z,1.20
2022-12-29T07:57:31.532Z,1.23
2022-12-29T07:59:58.792Z,0.90
2022-12-29T08:02:27.236Z,1.40
2022-12-29T08:04:54.156Z,1.20
2022-12-29T08:07:20.814Z,1.00
2022-12-29T08:09:47.423Z,1.17
2022-12-29T08:12:14.027Z,1.10
2022-12-29T08:14:40.657Z,0.83
2022-12-29T08:17:07.309Z,0.80
2022-12-29T08:19:33.928Z,1.00
2022-12-29T08:22:00.591Z,1.30
2022-12-29T08:24:35.497Z,0.70
2022-12-29T08:27:10.874Z,1.10
2022-12-29T08:29:42.714Z,1.10
2022-12-29T08:32:09.362Z,1.50
2022-12-29T08:34:36.071Z,0.87
2022-12-29T08:37:02.994Z,1.20
2022-12-29T08:39:29.625Z,1.10
2022-12-29T08:41:56.338Z,0.90
2022-12-29T08:44:23.162Z,0.90
2022-12-29T08:46:49.865Z,1.07
2022-12-29T08:49:16.520Z,1.10
2022-12-29T08:51:43.129Z,1.10
2022-12-29T08:54:09.717Z,1.00
2022-12-29T08:56:36.803Z,1.03
2022-12-29T08:59:03.440Z,1.30
2022-12-29T09:01:31.409Z,1.10
2022-12-29T09:04:16.267Z,1.20
2022-12-29T09:06:44.596Z,1.00
2022-12-29T09:09:12.140Z,1.20
2022-12-29T09:11:38.944Z,1.17
2022-12-29T09:14:05.716Z,0.83
2022-12-29T09:16:32.792Z,1.07
2022-12-29T09:18:59.453Z,0.77
2022-12-29T09:21:26.129Z,1.13
2022-12-29T09:23:53.415Z,1.00
2022-12-29T09:26:20.021Z,0.60
2022-12-29T09:28:46.963Z,0.80
2022-12-29T09:31:14.208Z,0.60
2022-12-29T09:33:41.407Z,1.00
2022-12-29T09:36:09.435Z,0.50
2022-12-29T09:38:36.093Z,1.10
2022-12-29T09:41:21.644Z,0.87
2022-12-29T09:44:04.944Z,0.97
2022-12-29T09:46:41.160Z,1.20
2022-12-29T09:49:23.308Z,1.17
2022-12-29T09:51:54.259Z,0.93
2022-12-29T09:54:35.143Z,1.93
2022-12-29T09:57:02.038Z,1.03
2022-12-29T09:59:46.255Z,0.77
2022-12-29T10:02:53.868Z,1.10
2022-12-29T10:05:44.094Z,1.00
2022-12-29T10:08:34.456Z,1.20
2022-12-29T10:11:27.588Z,1.10
2022-12-29T10:14:18.520Z,1.23
2022-12-29T10:17:06.907Z,1.43
2022-12-29T10:19:39.647Z,0.70
2022-12-29T10:22:38.102Z,1.20
2022-12-29T10:25:14.839Z,1.27
2022-12-29T10:27:42.924Z,0.97
2022-12-29T10:30:13.511Z,1.47
2022-12-29T10:32:52.916Z,1.30
2022-12-29T10:35:25.268Z,0.87
2022-12-29T10:38:24.636Z,1.20
2022-12-29T10:41:14.847Z,1.43
2022-12-29T10:43:48.455Z,0.80
2022-12-29T10:46:19.624Z,0.80
2022-12-29T10:48:47.638Z,1.00
2022-12-29T10:51:26.888Z,0.83
2022-12-29T10:54:03.285Z,0.90
2022-12-29T10:56:45.274Z,0.60
2022-12-29T10:59:25.469Z,1.13
2022-12-29T11:02:13.145Z,1.00
2022-12-29T11:04:59.419Z,1.57
2022-12-29T11:07:27.663Z,1.37
2022-12-29T11:09:55.059Z,1.13
2022-12-29T11:12:31.227Z,0.90
2022-12-29T11:15:06.992Z,1.00
2022-12-29T11:17:48.649Z,0.90
2022-12-29T11:20:29.537Z,0.80
2022-12-29T11:22:56.342Z,0.90
2022-12-29T11:25:23.322Z,0.67
2022-12-29T11:28:17.316Z,0.93
2022-12-29T11:30:44.395Z,1.30
2022-12-29T11:33:11.054Z,1.00
2022-12-29T11:35:46.986Z,0.97
2022-12-29T11:38:22.774Z,0.97
2022-12-29T11:40:50.679Z,1.07
2022-12-29T11:43:36.379Z,1.20
2022-12-29T11:46:04.596Z,0.73
2022-12-29T11:48:40.389Z,1.30
2022-12-29T11:51:07.778Z,1.03
2022-12-29T11:53:44.056Z,1.00
2022-12-29T11:56:15.826Z,0.90
2022-12-29T11:58:42.736Z,0.97
2022-12-29T12:01:37.382Z,0.60
2022-12-29T12:04:05.639Z,0.77
2022-12-29T12:06:36.157Z,0.97
2022-12-29T12:09:11.326Z,0.77
2022-12-29T12:11:43.099Z,0.90
2022-12-29T12:14:18.728Z,0.93
2022-12-29T12:16:58.107Z,0.80
2022-12-29T12:19:34.555Z,0.80
2022-12-29T12:22:27.228Z,1.00
2022-12-29T12:25:03.443Z,0.80
2022-12-29T12:27:40.937Z,0.77
2022-12-29T12:30:20.108Z,0.70
2022-12-29T12:32:54.854Z,1.00
2022-12-29T12:35:42.841Z,0.90
2022-12-29T12:38:29.421Z,1.10
2022-12-29T12:41:21.570Z,0.70
2022-12-29T12:44:02.624Z,1.50
2022-12-29T12:46:48.048Z,1.03
2022-12-29T12:49:38.101Z,1.57
2022-12-29T12:52:37.223Z,0.70
2022-12-29T12:55:30.357Z,1.03
2022-12-29T12:58:22.933Z,1.00
2022-12-29T13:01:20.428Z,1.33
2022-12-29T13:04:17.948Z,1.00
2022-12-29T13:07:00.819Z,1.20
2022-12-29T13:09:45.867Z,1.27
2022-12-29T13:12:31.227Z,1.53
2022-12-29T13:15:39.062Z,1.77
2022-12-29T13:18:11.849Z,1.40
2022-12-29T13:20:58.623Z,3.00
2022-12-29T13:23:36.055Z,0.90
2022-12-29T13:26:11.583Z,1.07
2022-12-29T13:29:06.279Z,1.37
2022-12-29T13:31:51.303Z,1.53
2022-12-29T13:34:26.410Z,1.90
2022-12-29T13:37:00.956Z,1.50
2022-12-29T13:39:34.116Z,1.30
2022-12-29T13:42:04.331Z,1.00
2022-12-29T13:44:44.093Z,1.20
2022-12-29T13:47:29.311Z,1.33
2022-12-29T13:49:59.591Z,1.10
2022-12-29T13:52:40.431Z,1.10
2022-12-29T13:55:25.516Z,0.80
2022-12-29T13:57:59.739Z,1.43
2022-12-29T14:00:31.483Z,1.60
2022-12-29T14:03:43.774Z,1.07
2022-12-29T14:06:38.039Z,1.40
2022-12-29T14:09:46.033Z,1.30
2022-12-29T14:12:49.800Z,1.50
2022-12-29T14:15:23.276Z,0.60
2022-12-29T14:18:19.912Z,1.07
2022-12-29T14:21:18.594Z,0.80
2022-12-29T14:23:47.736Z,0.90
2022-12-29T14:26:31.002Z,0.80
2022-12-29T14:29:16.029Z,1.03
2022-12-29T14:31:42.958Z,1.40
2022-12-29T14:34:12.763Z,1.00
2022-12-29T14:37:02.457Z,1.80
2022-12-29T14:39:43.282Z,1.10
2022-12-29T14:42:09.842Z,1.00
2022-12-29T14:45:06.565Z,1.00
2022-12-29T14:47:36.718Z,0.90
2022-12-29T14:50:12.074Z,1.47
2022-12-29T14:53:03.150Z,1.03
2022-12-29T14:55:42.549Z,1.40
2022-12-29T14:58:19.225Z,1.10
2022-12-29T15:00:47.582Z,1.63
2022-12-29T15:03:43.956Z,1.70
2022-12-29T15:06:13.998Z,1.17
2022-12-29T15:08:48.770Z,1.27
2022-12-29T15:11:20.697Z,1.40
2022-12-29T15:13:49.644Z,1.97
2022-12-29T15:16:36.748Z,1.30
2022-12-29T15:19:03.902Z,1.00
2022-12-29T15:21:32.966Z,1.40
2022-12-29T15:24:00.064Z,1.30
2022-12-29T15:26:44.954Z,1.50
2022-12-29T15:29:40.762Z,1.90
2022-12-29T15:32:16.455Z,12.20
2022-12-29T15:34:49.280Z,3.93
2022-12-29T15:37:23.337Z,1.83
2022-12-29T15:39:50.955Z,2.37
2022-12-29T15:42:30.733Z,1.90
2022-12-29T15:45:09.490Z,2.60
2022-12-29T15:47:36.947Z,1.93
2022-12-29T15:50:20.520Z,1.40
2022-12-29T15:52:47.252Z,1.80
2022-12-29T15:55:31.187Z,1.33
2022-12-29T15:58:00.567Z,1.40
2022-12-29T16:00:33.000Z,1.23
2022-12-29T16:03:02.739Z,1.53
2022-12-29T16:05:34.976Z,1.23
2022-12-29T16:08:02.147Z,1.80
2022-12-29T16:10:41.560Z,2.43
2022-12-29T16:13:23.623Z,1.97
2022-12-29T16:15:53.141Z,1.30
2022-12-29T16:18:36.063Z,1.03
2022-12-29T16:21:05.590Z,1.27
2022-12-29T16:23:33.409Z,1.50
2022-12-29T16:26:00.560Z,1.50
2022-12-29T16:28:47.903Z,2.10
2022-12-29T16:31:22.684Z,1.60
2022-12-29T16:33:55.085Z,1.80
2022-12-29T16:36:30.854Z,2.13
2022-12-29T16:39:40.519Z,2.47
2022-12-29T16:42:50.529Z,1.83
2022-12-29T16:45:20.971Z,2.50
2022-12-29T16:48:05.923Z,2.33
2022-12-29T16:50:33.959Z,2.57
2022-12-29T16:53:01.475Z,2.43
2022-12-29T16:55:28.145Z,2.97
2022-12-29T16:57:57.326Z,2.60
2022-12-29T17:00:28.360Z,2.37
2022-12-29T17:02:59.173Z,2.30
2022-12-29T17:05:26.053Z,1.70
2022-12-29T17:07:53.935Z,3.00
2022-12-29T17:10:20.878Z,2.30
2022-12-29T17:12:49.326Z,2.60
2022-12-29T17:15:22.185Z,2.90
2022-12-29T17:17:50.611Z,1.87
2022-12-29T17:20:26.875Z,2.00
2022-12-29T17:22:54.157Z,2.40
2022-12-29T17:25:29.949Z,2.20
2022-12-29T17:28:03.185Z,3.30
2022-12-29T17:30:34.123Z,2.20
2022-12-29T17:33:10.450Z,2.10
2022-12-29T17:35:37.379Z,2.00
2022-12-29T17:38:15.219Z,2.87
2022-12-29T17:40:41.868Z,2.03
2022-12-29T17:43:13.566Z,2.30
2022-12-29T17:45:41.339Z,2.20
2022-12-29T17:48:16.762Z,2.27
2022-12-29T17:50:44.527Z,3.07
2022-12-29T17:53:25.168Z,2.00
2022-12-29T17:55:52.043Z,2.40
2022-12-29T17:58:24.760Z,2.90
2022-12-29T18:00:57.593Z,2.30
2022-12-29T18:03:31.186Z,1.83
2022-12-29T18:05:58.199Z,2.40
2022-12-29T18:08:24.957Z,2.17
2022-12-29T18:10:53.861Z,1.80
2022-12-29T18:13:29.365Z,2.63
2022-12-29T18:16:02.610Z,2.50
2022-12-29T18:18:29.273Z,2.10
2022-12-29T18:20:59.491Z,1.73
2022-12-29T18:23:37.608Z,2.77
2022-12-29T18:26:25.704Z,2.27
2022-12-29T18:28:54.847Z,3.03
2022-12-29T18:31:24.572Z,2.80
2022-12-29T18:33:52.999Z,2.80
2022-12-29T18:36:20.695Z,3.53
2022-12-29T18:38:47.540Z,2.73
2022-12-29T18:41:19.811Z,2.80
2022-12-29T18:43:47.357Z,3.43
2022-12-29T18:46:20.407Z,2.40
2022-12-29T18:48:49.189Z,2.57
2022-12-29T18:51:19.000Z,3.90
2022-12-29T18:53:46.471Z,4.00
2022-12-29T18:56:13.776Z,3.83
2022-12-29T18:58:40.646Z,3.70
2022-12-29T19:01:07.834Z,2.90
2022-12-29T19:03:34.734Z,3.97
2022-12-29T19:06:01.464Z,3.60
2022-12-29T19:08:28.265Z,3.17
2022-12-29T19:10:54.911Z,3.77
2022-12-29T19:13:29.339Z,3.17
2022-12-29T19:15:57.228Z,2.90
2022-12-29T19:18:44.015Z,3.00
2022-12-29T19:21:11.810Z,2.97
2022-12-29T19:23:38.438Z,4.23
2022-12-29T19:26:05.244Z,2.90
2022-12-29T19:28:32.017Z,3.07
2022-12-29T19:31:00.728Z,3.50
2022-12-29T19:33:28.205Z,4.93
2022-12-29T19:36:00.630Z,3.83
2022-12-29T19:38:27.282Z,3.50
2022-12-29T19:40:53.894Z,3.17
2022-12-29T19:43:20.687Z,2.93
2022-12-29T19:45:47.342Z,3.50
2022-12-29T19:48:16.666Z,2.53
2022-12-29T19:50:44.043Z,3.10
2022-12-29T19:53:11.242Z,3.10
2022-12-29T19:55:41.289Z,3.00
2022-12-29T19:58:07.971Z,2.90
2022-12-29T20:00:34.670Z,3.00
2022-12-29T20:03:01.492Z,3.37
2022-12-29T20:05:28.247Z,2.93
2022-12-29T20:07:54.911Z,3.20
2022-12-29T20:10:21.541Z,2.30
2022-12-29T20:12:48.195Z,1.70
2022-12-29T20:15:15.175Z,2.10
2022-12-29T20:20:28.472Z,1.70
2022-12-29T20:22:55.126Z,2.37
2022-12-29T20:28:08.579Z,1.90
2022-12-29T20:30:35.400Z,1.37
2022-12-29T20:33:07.803Z,0.90
2022-12-29T20:35:35.082Z,1.30
2022-12-29T20:38:01.785Z,0.80
2022-12-29T20:40:28.454Z,1.53
2022-12-29T20:42:55.070Z,0.70
2022-12-29T20:45:21.700Z,0.87
2022-12-29T20:47:48.297Z,1.20
2022-12-29T20:50:14.991Z,1.53
2022-12-29T20:52:41.585Z,0.93
2022-12-29T20:55:08.485Z,1.23
2022-12-29T20:57:57.058Z,0.80
2022-12-29T21:00:22.872Z,1.00
2022-12-29T21:02:50.129Z,1.20
2022-12-29T21:05:25.228Z,1.00
2022-12-29T21:07:53.525Z,1.20
2022-12-29T21:10:20.792Z,1.00
2022-12-29T21:12:48.353Z,1.40
2022-12-29T21:15:15.572Z,1.00
2022-12-29T21:17:43.583Z,0.90
2022-12-29T21:20:19.537Z,1.23
2022-12-29T21:22:49.233Z,1.40
2022-12-29T21:25:16.012Z,1.60
2022-12-29T21:27:45.324Z,1.07
2022-12-29T21:30:12.766Z,0.60
2022-12-29T21:32:40.161Z,1.83
2022-12-29T21:35:08.247Z,1.23
2022-12-29T21:37:36.217Z,0.97
2022-12-29T21:40:04.576Z,1.63
2022-12-29T21:42:31.544Z,1.17
2022-12-29T21:45:20.793Z,1.83
2022-12-29T21:48:06.955Z,1.53
2022-12-29T21:50:33.642Z,1.13
2022-12-29T21:53:00.271Z,0.93
2022-12-29T21:55:26.902Z,1.10
2022-12-29T21:58:12.045Z,0.90
2022-12-29T22:00:57.677Z,1.23
2022-12-29T22:03:43.060Z,2.70
2022-12-29T22:06:30.940Z,1.70
2022-12-29T22:09:16.357Z,1.73
2022-12-29T22:12:01.686Z,3.93
2022-12-29T22:14:28.284Z,1.57
2022-12-29T22:16:54.996Z,1.50
2022-12-29T22:19:21.667Z,1.20
2022-12-29T22:21:48.309Z,1.13
2022-12-29T22:24:14.993Z,1.53
2022-12-29T22:26:41.599Z,1.63
2022-12-29T22:29:08.247Z,2.13
2022-12-29T22:31:35.026Z,1.40
2022-12-29T22:34:03.603Z,0.90
2022-12-29T22:36:30.793Z,1.10
2022-12-29T22:38:57.659Z,1.37
2022-12-29T22:41:24.819Z,1.87
2022-12-29T22:43:51.616Z,3.27
2022-12-29T22:46:18.336Z,1.57
2022-12-29T22:48:44.996Z,2.03
2022-12-29T22:51:11.723Z,1.80
2022-12-29T22:53:39.471Z,1.90
2022-12-29T22:56:12.142Z,1.57
2022-12-29T22:58:43.605Z,1.97
2022-12-29T23:01:12.007Z,4.53
2022-12-29T23:03:40.513Z,1.87
2022-12-29T23:06:08.980Z,2.30
2022-12-29T23:08:37.976Z,2.03
2022-12-29T23:11:05.909Z,2.07
2022-12-29T23:13:32.824Z,2.40
2022-12-29T23:16:00.229Z,2.27
2022-12-29T23:18:27.412Z,1.77
2022-12-29T23:20:54.128Z,2.20
2022-12-29T23:23:48.160Z,1.30
2022-12-29T23:26:15.464Z,1.77
2022-12-29T23:28:42.625Z,1.33
2022-12-29T23:31:09.780Z,1.27
2022-12-29T23:33:36.780Z,2.10
2022-12-29T23:36:03.991Z,1.50
2022-12-29T23:38:30.658Z,2.17
2022-12-29T23:40:57.270Z,2.50
2022-12-29T23:43:23.974Z,2.17
2022-12-29T23:45:51.239Z,2.70
2022-12-29T23:48:19.036Z,2.67
2022-12-29T23:50:46.271Z,1.83
2022-12-29T23:53:13.415Z,2.23
2022-12-29T23:55:42.824Z,2.40
2022-12-29T23:58:10.417Z,2.73
